createdAt,value
2023-06-09T00:01:11.114Z,100507.41
2023-06-09T00:05:26.856Z,100504.66
2023-06-09T00:09:30.975Z,100496.22
2023-06-09T00:13:32.998Z,100500.38
2023-06-09T00:17:35.718Z,100503.50
2023-06-09T00:21:38.540Z,100495.78
2023-06-09T00:25:40.697Z,100493.84
2023-06-09T00:29:42.803Z,100496.00
2023-06-09T00:33:44.970Z,100498.75
2023-06-09T00:37:49.186Z,100507.88
2023-06-09T00:41:51.386Z,100501.88
2023-06-09T00:45:54.290Z,100496.56
2023-06-09T00:49:56.392Z,100495.09
2023-06-09T00:53:58.570Z,100503.47
2023-06-09T00:58:02.371Z,100522.97
2023-06-09T01:02:05.711Z,100501.72
2023-06-09T01:06:39.891Z,100504.59
2023-06-09T01:11:01.773Z,100505.50
2023-06-09T01:15:13.243Z,100499.72
2023-06-09T01:19:27.126Z,100508.31
2023-06-09T01:23:32.014Z,100502.72
2023-06-09T01:27:37.614Z,100495.16
2023-06-09T01:31:40.088Z,100497.16
2023-06-09T01:35:42.803Z,100493.63
2023-06-09T01:39:47.231Z,100494.56
2023-06-09T01:43:49.496Z,100494.25
2023-06-09T01:47:52.370Z,100511.44
2023-06-09T01:52:19.944Z,100501.00
2023-06-09T01:56:29.056Z,100491.38
2023-06-09T02:00:31.624Z,100499.28
2023-06-09T02:04:35.686Z,100506.69
2023-06-09T02:08:38.655Z,100498.69
2023-06-09T02:12:40.962Z,100512.09
2023-06-09T02:16:43.198Z,100516.75
2023-06-09T02:20:45.414Z,100519.91
2023-06-09T02:24:48.594Z,100529.09
2023-06-09T02:28:50.664Z,100532.13
2023-06-09T02:32:53.423Z,100528.44
2023-06-09T02:36:55.646Z,100529.38
2023-06-09T02:40:57.749Z,100529.16
2023-06-09T02:45:00.015Z,100523.16
2023-06-09T02:49:02.671Z,100528.56
2023-06-09T02:53:04.435Z,100538.16
2023-06-09T02:57:08.336Z,100531.59
2023-06-09T03:01:12.726Z,100541.53
2023-06-09T03:05:15.458Z,100529.19
2023-06-09T03:09:20.267Z,100533.16
2023-06-09T03:13:26.406Z,100537.63
2023-06-09T03:17:30.640Z,100543.53
2023-06-09T03:21:36.468Z,100536.19
2023-06-09T03:25:40.345Z,100547.47
2023-06-09T03:29:44.145Z,100553.53
2023-06-09T03:33:46.675Z,100542.50
2023-06-09T03:37:49.332Z,100541.47
2023-06-09T03:41:55.336Z,100534.41
2023-06-09T03:45:59.168Z,100543.38
2023-06-09T03:50:01.530Z,100542.84
2023-06-09T03:54:05.499Z,100531.84
2023-06-09T03:58:10.020Z,100547.00
2023-06-09T04:02:12.412Z,100542.56
2023-06-09T04:06:14.696Z,100553.13
2023-06-09T04:10:16.915Z,100545.66
2023-06-09T04:14:19.758Z,100540.47
2023-06-09T04:18:24.382Z,100548.88
2023-06-09T04:22:27.158Z,100545.41
2023-06-09T04:26:30.888Z,100555.19
2023-06-09T04:30:35.639Z,100566.81
2023-06-09T04:34:41.804Z,100572.03
2023-06-09T04:38:48.079Z,100566.63
2023-06-09T04:42:51.863Z,100581.00
2023-06-09T04:46:54.999Z,100572.00
2023-06-09T04:51:01.830Z,100591.25
2023-06-09T04:55:08.936Z,100599.72
2023-06-09T04:59:12.786Z,100610.56
2023-06-09T05:03:18.913Z,100609.03
2023-06-09T05:07:23.582Z,100612.28
2023-06-09T05:11:25.757Z,100622.66
2023-06-09T05:15:28.575Z,100616.19
2023-06-09T05:19:30.959Z,100629.38
2023-06-09T05:23:34.302Z,100636.56
2023-06-09T05:27:37.593Z,100634.00
2023-06-09T05:31:41.578Z,100641.16
2023-06-09T05:35:43.685Z,100643.75
2023-06-09T05:39:47.204Z,100645.63
2023-06-09T05:43:49.275Z,100658.09
2023-06-09T05:47:51.773Z,100645.28
2023-06-09T05:51:54.324Z,100654.81
2023-06-09T05:55:59.950Z,100655.47
2023-06-09T06:00:09.775Z,100657.41
2023-06-09T06:04:15.174Z,100663.22
2023-06-09T06:08:17.256Z,100664.44
2023-06-09T06:12:19.296Z,100665.66
2023-06-09T06:16:22.152Z,100657.91
2023-06-09T06:20:25.085Z,100656.97
2023-06-09T06:24:27.204Z,100665.69
2023-06-09T06:28:29.370Z,100664.69
2023-06-09T06:32:31.621Z,100657.19
2023-06-09T06:36:33.767Z,100655.81
2023-06-09T06:40:36.012Z,100659.47
2023-06-09T06:44:38.022Z,100659.59
2023-06-09T06:48:42.494Z,100661.56
2023-06-09T06:52:44.610Z,100658.16
2023-06-09T06:56:46.657Z,100658.03
2023-06-09T07:00:48.321Z,100662.69
2023-06-09T07:04:52.032Z,100663.66
2023-06-09T07:08:55.304Z,100663.38
2023-06-09T07:12:57.391Z,100662.94
2023-06-09T07:16:59.644Z,100655.16
2023-06-09T07:21:04.767Z,100663.78
2023-06-09T07:25:07.881Z,100658.44
2023-06-09T07:29:10.289Z,100667.22
2023-06-09T07:33:12.359Z,100659.22
2023-06-09T07:37:14.655Z,100657.00
2023-06-09T07:41:16.840Z,100650.38
2023-06-09T07:45:19.463Z,100650.31
2023-06-09T07:49:21.844Z,100651.44
2023-06-09T07:53:24.593Z,100642.22
2023-06-09T07:57:26.638Z,100651.13
2023-06-09T08:01:30.434Z,100651.88
2023-06-09T08:05:35.112Z,100647.59
2023-06-09T08:09:38.990Z,100655.22
2023-06-09T08:13:41.063Z,100645.69
2023-06-09T08:17:43.231Z,100649.00
2023-06-09T08:21:45.381Z,100645.88
2023-06-09T08:25:48.258Z,100641.09
2023-06-09T08:29:50.486Z,100647.28
2023-06-09T08:33:53.165Z,100639.34
2023-06-09T08:37:55.185Z,100643.69
2023-06-09T08:42:00.375Z,100644.34
2023-06-09T08:46:06.128Z,100643.59
2023-06-09T08:50:09.298Z,100645.88
2023-06-09T08:54:14.698Z,100643.28
2023-06-09T08:58:16.916Z,100639.84
2023-06-09T09:02:19.479Z,100642.59
2023-06-09T09:06:21.642Z,100645.22
2023-06-09T09:10:24.164Z,100640.94
2023-06-09T09:14:26.411Z,100636.03
2023-06-09T09:18:32.946Z,100631.38
2023-06-09T09:22:51.934Z,100623.44
2023-06-09T09:26:59.265Z,100624.09
2023-06-09T09:31:01.956Z,100625.38
2023-06-09T09:35:04.883Z,100619.50
2023-06-09T09:39:07.156Z,100622.91
2023-06-09T09:43:11.266Z,100633.28
2023-06-09T09:47:16.192Z,100624.56
2023-06-09T09:51:21.941Z,100628.16
2023-06-09T09:55:25.387Z,100608.69
2023-06-09T09:59:27.881Z,100615.00
2023-06-09T10:03:31.313Z,100604.91
2023-06-09T10:07:39.295Z,100600.81
2023-06-09T10:11:42.273Z,100604.38
2023-06-09T10:15:45.432Z,100596.66
2023-06-09T10:19:52.911Z,100596.44
2023-06-09T10:23:57.341Z,100588.41
2023-06-09T10:27:59.425Z,100580.44
2023-06-09T10:32:03.200Z,100569.06
2023-06-09T10:36:06.749Z,100575.69
2023-06-09T10:40:23.664Z,100560.75
2023-06-09T10:44:35.597Z,100564.47
2023-06-09T10:48:45.565Z,100561.19
2023-06-09T10:52:50.889Z,100560.81
2023-06-09T10:56:55.683Z,100554.91
2023-06-09T11:01:08.741Z,100540.34
2023-06-09T11:05:12.858Z,100533.25
2023-06-09T11:09:15.732Z,100534.81
2023-06-09T11:13:40.543Z,100529.28
2023-06-09T11:17:44.533Z,100524.72
2023-06-09T11:22:03.901Z,100519.59
2023-06-09T11:26:20.217Z,100527.22
2023-06-09T11:30:31.262Z,100529.56
2023-06-09T11:34:50.286Z,100517.22
2023-06-09T11:38:53.056Z,100516.03
2023-06-09T11:42:59.701Z,100503.78
2023-06-09T11:47:03.269Z,100509.50
2023-06-09T11:51:08.327Z,100498.22
2023-06-09T11:55:15.932Z,100497.66
2023-06-09T11:59:27.518Z,100484.31
2023-06-09T12:03:37.490Z,100493.47
2023-06-09T12:07:42.429Z,100488.72
2023-06-09T12:11:52.110Z,100487.97
2023-06-09T12:15:54.248Z,100490.56
2023-06-09T12:19:57.552Z,100504.16
2023-06-09T12:23:59.890Z,100501.28
2023-06-09T12:28:24.257Z,100506.53
2023-06-09T12:32:27.176Z,100502.00
2023-06-09T12:36:39.734Z,100514.19
2023-06-09T12:40:53.827Z,100516.81
2023-06-09T12:44:59.022Z,100523.78
2023-06-09T12:49:08.985Z,100536.97
2023-06-09T12:53:12.797Z,100551.16
2023-06-09T12:57:14.893Z,100551.22
2023-06-09T13:01:17.536Z,100563.13
2023-06-09T13:05:19.831Z,100556.16
2023-06-09T13:09:22.173Z,100558.06
2023-06-09T13:13:24.303Z,100549.44
2023-06-09T13:17:26.301Z,100543.16
2023-06-09T13:21:43.973Z,100535.13
2023-06-09T13:25:47.447Z,100537.59
2023-06-09T13:29:49.555Z,100534.22
2023-06-09T13:33:51.917Z,100527.63
2023-06-09T13:37:54.034Z,100515.38
2023-06-09T13:41:56.203Z,100501.75
2023-06-09T13:45:58.268Z,100503.56
2023-06-09T13:50:00.476Z,100501.72
2023-06-09T13:54:02.603Z,100501.09
2023-06-09T13:58:04.801Z,100496.50
2023-06-09T14:02:07.625Z,100499.75
2023-06-09T14:06:09.743Z,100498.59
2023-06-09T14:10:14.552Z,100498.78
2023-06-09T14:14:17.804Z,100493.63
2023-06-09T14:18:19.948Z,100489.59
2023-06-09T14:22:23.768Z,100494.06
2023-06-09T14:26:26.130Z,100491.00
2023-06-09T14:30:29.135Z,100487.94
2023-06-09T14:34:31.910Z,100485.19
2023-06-09T14:38:34.266Z,100478.91
2023-06-09T14:42:36.637Z,100480.38
2023-06-09T14:46:38.802Z,100466.78
2023-06-09T14:50:47.799Z,100465.75
2023-06-09T14:54:51.375Z,100475.72
2023-06-09T14:58:53.438Z,100470.75
2023-06-09T15:03:00.112Z,100475.59
2023-06-09T15:07:02.446Z,100467.59
2023-06-09T15:11:05.238Z,100471.72
2023-06-09T15:15:08.164Z,100466.56
2023-06-09T15:19:10.320Z,100469.38
2023-06-09T15:23:13.381Z,100479.47
2023-06-09T15:27:15.701Z,100480.97
2023-06-09T15:31:17.701Z,100488.38
2023-06-09T15:35:19.785Z,100493.94
2023-06-09T15:39:21.715Z,100488.44
2023-06-09T15:43:25.241Z,100496.38
2023-06-09T15:47:30.181Z,100497.47
2023-06-09T15:51:32.364Z,100500.66
2023-06-09T15:55:34.997Z,100504.03
2023-06-09T15:59:36.805Z,100489.94
2023-06-09T16:03:38.994Z,100489.31
2023-06-09T16:07:41.093Z,100496.53
2023-06-09T16:11:43.223Z,100504.53
2023-06-09T16:15:45.405Z,100496.59
2023-06-09T16:19:47.465Z,100499.97
2023-06-09T16:23:50.352Z,100501.84
2023-06-09T16:27:52.766Z,100512.13
2023-06-09T16:31:56.195Z,100510.75
2023-06-09T16:35:58.307Z,100517.50
2023-06-09T16:40:00.754Z,100516.22
2023-06-09T16:44:02.764Z,100519.75
2023-06-09T16:48:05.108Z,100525.56
2023-06-09T16:52:07.687Z,100522.53
2023-06-09T16:56:09.880Z,100527.00
2023-06-09T17:00:12.641Z,100530.69
2023-06-09T17:04:15.067Z,100530.97
2023-06-09T17:08:17.254Z,100529.56
2023-06-09T17:12:19.286Z,100525.25
2023-06-09T17:16:21.788Z,100528.00
2023-06-09T17:20:24.107Z,100526.25
2023-06-09T17:24:26.216Z,100523.91
2023-06-09T17:28:28.323Z,100524.31
2023-06-09T17:32:30.791Z,100527.84
2023-06-09T17:36:33.114Z,100525.69
2023-06-09T17:40:35.335Z,100530.75
2023-06-09T17:44:37.625Z,100524.13
2023-06-09T17:48:41.794Z,100527.50
2023-06-09T17:52:43.856Z,100534.44
2023-06-09T17:56:46.006Z,100538.19
2023-06-09T18:00:50.555Z,100533.19
2023-06-09T18:04:53.291Z,100534.91
2023-06-09T18:08:55.393Z,100533.75
2023-06-09T18:12:57.564Z,100528.44
2023-06-09T18:16:59.642Z,100536.66
2023-06-09T18:21:01.708Z,100542.72
2023-06-09T18:25:04.185Z,100543.06
2023-06-09T18:29:06.838Z,100540.16
2023-06-09T18:33:08.954Z,100541.50
2023-06-09T18:37:11.372Z,100554.16
2023-06-09T18:41:13.589Z,100554.81
2023-06-09T18:45:15.812Z,100560.75
2023-06-09T18:49:18.111Z,100557.84
2023-06-09T18:53:20.174Z,100556.13
2023-06-09T18:57:22.237Z,100531.63
2023-06-09T19:01:24.827Z,100549.31
2023-06-09T19:05:27.053Z,100554.09
2023-06-09T19:09:29.147Z,100550.22
2023-06-09T19:13:31.548Z,100549.63
2023-06-09T19:17:34.574Z,100543.56
2023-06-09T19:21:36.970Z,100549.25
2023-06-09T19:25:39.300Z,100549.19
2023-06-09T19:29:41.536Z,100542.28
2023-06-09T19:33:44.196Z,100544.81
2023-06-09T19:37:46.338Z,100547.38
2023-06-09T19:41:48.444Z,100537.25
2023-06-09T19:45:50.577Z,100526.09
2023-06-09T19:49:52.966Z,100536.94
2023-06-09T19:53:57.541Z,100542.53
2023-06-09T19:57:59.328Z,100540.31
2023-06-09T20:02:01.687Z,100531.78
2023-06-09T20:06:03.887Z,100537.41
2023-06-09T20:10:07.548Z,100537.56
2023-06-09T20:14:10.287Z,100544.81
2023-06-09T20:18:12.255Z,100543.13
2023-06-09T20:22:15.012Z,100550.13
2023-06-09T20:26:19.141Z,100531.09
2023-06-09T20:30:23.392Z,100539.47
2023-06-09T20:34:26.032Z,100552.28
2023-06-09T20:38:28.634Z,100524.91
2023-06-09T20:42:31.304Z,100527.88
2023-06-09T20:46:34.163Z,100544.13
2023-06-09T20:50:37.020Z,100554.94
2023-06-09T20:54:39.482Z,100556.16
2023-06-09T20:58:42.479Z,100569.34
2023-06-09T21:02:48.326Z,100556.16
2023-06-09T21:06:50.610Z,100552.25
2023-06-09T21:10:52.408Z,100528.94
2023-06-09T21:14:54.458Z,100550.09
2023-06-09T21:18:57.825Z,100570.59
2023-06-09T21:23:00.737Z,100585.69
2023-06-09T21:27:02.974Z,100596.06
2023-06-09T21:31:05.118Z,100590.81
2023-06-09T21:35:07.937Z,100581.69
2023-06-09T21:39:10.319Z,100590.34
2023-06-09T21:43:12.099Z,100609.34
2023-06-09T21:47:14.427Z,100601.66
2023-06-09T21:51:17.164Z,100608.66
2023-06-09T21:55:20.639Z,100606.16
2023-06-09T21:59:22.853Z,100615.78
2023-06-09T22:03:25.052Z,100604.09
2023-06-09T22:07:27.290Z,100610.34
2023-06-09T22:11:29.559Z,100596.16
2023-06-09T22:15:31.836Z,100592.28
2023-06-09T22:19:36.464Z,100587.63
2023-06-09T22:23:38.602Z,100601.16
2023-06-09T22:27:40.914Z,100606.13
2023-06-09T22:31:43.259Z,100596.63
2023-06-09T22:35:45.422Z,100605.59
2023-06-09T22:39:49.830Z,100615.28
2023-06-09T22:43:52.095Z,100607.59
2023-06-09T22:47:55.109Z,100597.38
2023-06-09T22:51:58.355Z,100587.31
2023-06-09T22:56:00.795Z,100589.47
2023-06-09T23:00:05.198Z,100581.22
2023-06-09T23:04:11.991Z,100589.63
2023-06-09T23:08:14.034Z,100575.69
2023-06-09T23:12:16.588Z,100566.31
2023-06-09T23:16:21.068Z,100560.56
2023-06-09T23:20:23.376Z,100557.53
2023-06-09T23:24:28.080Z,100545.38
2023-06-09T23:28:30.844Z,100546.22
2023-06-09T23:32:33.037Z,100543.81
2023-06-09T23:36:35.150Z,100531.81
2023-06-09T23:40:37.215Z,100526.63
2023-06-09T23:44:41.049Z,100519.91
2023-06-09T23:48:43.973Z,100534.72
2023-06-09T23:52:46.549Z,100530.69
2023-06-09T23:56:48.622Z,100529.56
